createdAt,value
2018-10-09T00:01:55.242Z,61.07
2018-10-09T00:04:23.756Z,54.97
2018-10-09T00:06:52.266Z,55.87
2018-10-09T00:09:20.802Z,57.03
2018-10-09T00:11:49.246Z,56.80
2018-10-09T00:14:17.694Z,57.53
2018-10-09T00:16:46.178Z,61.17
2018-10-09T00:19:14.613Z,57.50
2018-10-09T00:21:43.133Z,60.63
2018-10-09T00:24:11.612Z,60.53
2018-10-09T00:26:40.195Z,62.97
2018-10-09T00:29:08.639Z,61.13
2018-10-09T00:31:37.141Z,61.77
2018-10-09T00:34:05.825Z,59.40
2018-10-09T00:36:34.820Z,59.97
2018-10-09T00:39:05.109Z,62.07
2018-10-09T00:41:33.562Z,63.17
2018-10-09T00:44:01.999Z,62.17
2018-10-09T00:46:30.621Z,68.53
2018-10-09T00:48:59.220Z,67.03
2018-10-09T00:51:27.825Z,68.70
2018-10-09T00:53:56.262Z,83.30
2018-10-09T00:56:24.827Z,73.20
2018-10-09T00:58:53.351Z,76.03
2018-10-09T01:01:22.180Z,67.73
2018-10-09T01:03:50.659Z,69.43
2018-10-09T01:06:19.079Z,63.63
2018-10-09T01:08:47.621Z,63.77
2018-10-09T01:11:16.084Z,78.33
2018-10-09T01:13:44.593Z,54.60
2018-10-09T01:16:13.033Z,54.17
2018-10-09T01:18:41.640Z,55.10
2018-10-09T01:21:10.224Z,49.83
2018-10-09T01:23:38.866Z,60.87
2018-10-09T01:26:08.020Z,51.73
2018-10-09T01:28:36.586Z,58.73
2018-10-09T01:31:05.058Z,52.20
2018-10-09T01:33:33.646Z,48.63
2018-10-09T01:36:02.091Z,46.43
2018-10-09T01:38:30.545Z,49.07
2018-10-09T01:40:58.977Z,47.50
2018-10-09T01:43:27.409Z,46.20
2018-10-09T01:45:55.823Z,44.83
2018-10-09T01:48:24.264Z,44.03
2018-10-09T01:50:52.705Z,43.30
2018-10-09T01:53:21.241Z,43.57
2018-10-09T01:55:49.774Z,44.43
2018-10-09T01:58:18.226Z,40.67
2018-10-09T02:00:46.686Z,39.17
2018-10-09T02:03:15.324Z,38.97
2018-10-09T02:05:43.814Z,40.07
2018-10-09T02:08:12.288Z,38.53
2018-10-09T02:10:40.705Z,42.27
2018-10-09T02:13:09.351Z,43.30
2018-10-09T02:15:37.781Z,43.57
2018-10-09T02:18:06.265Z,43.13
2018-10-09T02:20:34.767Z,41.43
2018-10-09T02:23:03.349Z,47.83
2018-10-09T02:25:31.790Z,50.23
2018-10-09T02:28:00.390Z,51.13
2018-10-09T02:30:28.871Z,54.40
2018-10-09T02:32:57.412Z,51.17
2018-10-09T02:35:25.877Z,55.97
2018-10-09T02:37:54.455Z,50.37
2018-10-09T02:40:23.070Z,52.90
2018-10-09T02:42:51.901Z,48.43
2018-10-09T02:45:20.522Z,52.07
2018-10-09T02:47:48.956Z,49.90
2018-10-09T02:50:17.630Z,47.10
2018-10-09T02:52:46.074Z,48.70
2018-10-09T02:55:14.810Z,46.23
2018-10-09T02:57:43.251Z,47.07
2018-10-09T03:00:11.672Z,48.13
2018-10-09T03:02:40.273Z,49.50
2018-10-09T03:05:08.692Z,52.57
2018-10-09T03:07:37.170Z,47.37
2018-10-09T03:10:05.870Z,50.00
2018-10-09T03:12:34.319Z,47.40
2018-10-09T03:15:02.793Z,47.20
2018-10-09T03:17:31.343Z,43.33
2018-10-09T03:19:59.823Z,46.47
2018-10-09T03:22:28.590Z,46.10
2018-10-09T03:24:57.287Z,44.63
2018-10-09T03:27:25.743Z,46.67
2018-10-09T03:29:54.187Z,46.87
2018-10-09T03:32:22.722Z,48.37
2018-10-09T03:34:51.262Z,47.00
2018-10-09T03:37:19.766Z,49.87
2018-10-09T03:39:49.086Z,53.25
2018-10-09T03:42:17.674Z,50.63
2018-10-09T03:44:46.139Z,50.47
2018-10-09T03:47:14.718Z,50.60
2018-10-09T03:49:43.313Z,53.50
2018-10-09T03:52:11.891Z,52.17
2018-10-09T03:54:40.527Z,52.73
2018-10-09T03:57:09.025Z,50.93
2018-10-09T03:59:37.735Z,46.20
2018-10-09T04:02:06.163Z,47.83
2018-10-09T04:04:34.872Z,48.73
2018-10-09T04:07:03.328Z,45.33
2018-10-09T04:09:31.984Z,46.07
2018-10-09T04:12:00.916Z,47.08
2018-10-09T04:14:29.517Z,42.27
2018-10-09T04:16:57.938Z,41.00
2018-10-09T04:19:26.460Z,42.63
2018-10-09T04:21:55.289Z,44.47
2018-10-09T04:24:23.964Z,45.23
2018-10-09T04:26:53.023Z,41.92
2018-10-09T04:29:21.897Z,40.47
2018-10-09T04:31:50.789Z,42.73
2018-10-09T04:34:19.279Z,41.03
2018-10-09T04:36:49.007Z,43.33
2018-10-09T04:39:17.743Z,42.27
2018-10-09T04:41:46.242Z,40.57
2018-10-09T04:44:14.796Z,40.07
2018-10-09T04:46:43.324Z,43.43
2018-10-09T04:49:11.856Z,41.27
2018-10-09T04:51:40.294Z,39.57
2018-10-09T04:54:09.016Z,42.07
2018-10-09T04:56:37.778Z,44.47
2018-10-09T04:59:06.244Z,43.20
2018-10-09T05:01:34.793Z,45.70
2018-10-09T05:04:03.256Z,43.47
2018-10-09T05:06:31.853Z,42.83
2018-10-09T05:09:00.343Z,45.33
2018-10-09T05:11:28.845Z,44.43
2018-10-09T05:13:57.333Z,43.38
2018-10-09T05:16:26.206Z,44.73
2018-10-09T05:18:55.061Z,46.60
2018-10-09T05:21:23.782Z,51.33
2018-10-09T05:23:52.516Z,47.30
2018-10-09T05:26:20.990Z,52.93
2018-10-09T05:28:49.691Z,54.63
2018-10-09T05:31:18.265Z,50.33
2018-10-09T05:33:46.897Z,46.70
2018-10-09T05:36:15.429Z,47.33
2018-10-09T05:38:44.377Z,51.30
2018-10-09T05:41:12.909Z,48.73
2018-10-09T05:43:41.361Z,49.43
2018-10-09T05:46:09.917Z,51.13
2018-10-09T05:48:38.523Z,45.50
2018-10-09T05:51:07.465Z,49.40
2018-10-09T05:53:35.918Z,49.83
2018-10-09T05:56:04.361Z,47.98
2018-10-09T05:58:32.957Z,44.23
2018-10-09T06:01:01.434Z,45.47
2018-10-09T06:03:29.862Z,48.07
2018-10-09T06:05:58.358Z,43.90
2018-10-09T06:08:27.070Z,47.43
2018-10-09T06:10:55.517Z,42.60
2018-10-09T06:13:24.037Z,44.17
2018-10-09T06:15:52.815Z,44.60
2018-10-09T06:18:21.612Z,42.97
2018-10-09T06:20:50.175Z,40.67
2018-10-09T06:23:18.984Z,44.87
2018-10-09T06:25:48.358Z,40.27
2018-10-09T06:28:17.006Z,45.37
2018-10-09T06:30:45.615Z,42.37
2018-10-09T06:33:14.053Z,42.40
2018-10-09T06:35:42.679Z,41.47
2018-10-09T06:38:11.183Z,52.33
2018-10-09T06:40:39.815Z,43.70
2018-10-09T06:43:08.947Z,48.25
2018-10-09T06:45:37.395Z,44.13
2018-10-09T06:48:06.058Z,44.97
2018-10-09T06:50:34.524Z,48.77
2018-10-09T06:53:03.052Z,43.80
2018-10-09T06:55:31.518Z,47.30
2018-10-09T06:58:00.148Z,43.93
2018-10-09T07:00:28.662Z,50.57
2018-10-09T07:02:57.232Z,45.33
2018-10-09T07:05:26.038Z,49.83
2018-10-09T07:07:54.556Z,45.90
2018-10-09T07:10:23.011Z,49.53
2018-10-09T07:12:51.505Z,51.27
2018-10-09T07:15:20.057Z,50.17
2018-10-09T07:17:49.295Z,44.90
2018-10-09T07:20:18.005Z,44.93
2018-10-09T07:22:46.953Z,46.83
2018-10-09T07:25:15.785Z,44.33
2018-10-09T07:27:44.283Z,41.13
2018-10-09T07:30:13.101Z,45.00
2018-10-09T07:32:41.677Z,49.33
2018-10-09T07:35:10.834Z,43.23
2018-10-09T07:37:39.425Z,40.53
2018-10-09T07:40:08.106Z,39.30
2018-10-09T07:42:36.696Z,41.23
2018-10-09T07:45:05.540Z,41.08
2018-10-09T07:47:34.111Z,38.63
2018-10-09T07:50:02.999Z,41.47
2018-10-09T07:52:31.535Z,35.83
2018-10-09T07:55:00.152Z,36.90
2018-10-09T07:57:28.723Z,36.57
2018-10-09T07:59:57.243Z,40.17
2018-10-09T08:02:26.042Z,36.43
2018-10-09T08:04:55.138Z,36.73
2018-10-09T08:07:24.189Z,36.73
2018-10-09T08:09:52.915Z,37.37
2018-10-09T08:12:21.673Z,37.33
2018-10-09T08:14:51.144Z,38.43
2018-10-09T08:17:19.774Z,45.10
2018-10-09T08:19:49.320Z,37.78
2018-10-09T08:22:18.031Z,39.90
2018-10-09T08:24:46.755Z,40.90
2018-10-09T08:27:15.432Z,40.57
2018-10-09T08:29:43.893Z,35.17
2018-10-09T08:32:12.544Z,36.57
2018-10-09T08:34:41.343Z,44.53
2018-10-09T08:37:10.162Z,43.83
2018-10-09T08:39:38.827Z,44.80
2018-10-09T08:42:07.369Z,41.70
2018-10-09T08:44:36.009Z,42.73
2018-10-09T08:47:04.552Z,41.57
2018-10-09T08:49:33.095Z,42.40
2018-10-09T08:52:01.667Z,40.90
2018-10-09T08:54:30.207Z,44.17
2018-10-09T08:56:58.678Z,44.10
2018-10-09T08:59:27.106Z,42.87
2018-10-09T09:01:55.582Z,43.00
2018-10-09T09:04:24.090Z,39.00
2018-10-09T09:06:52.532Z,44.63
2018-10-09T09:09:21.145Z,42.03
2018-10-09T09:11:49.666Z,50.87
2018-10-09T09:14:18.135Z,90.40
2018-10-09T09:16:46.653Z,59.80
2018-10-09T09:19:15.151Z,53.23
2018-10-09T09:21:43.929Z,42.93
2018-10-09T09:24:12.363Z,44.90
2018-10-09T09:26:40.857Z,43.10
2018-10-09T09:29:09.477Z,41.90
2018-10-09T09:31:38.151Z,43.03
2018-10-09T09:34:06.679Z,46.93
2018-10-09T09:36:35.160Z,45.77
2018-10-09T09:39:04.422Z,44.97
2018-10-09T09:41:33.164Z,44.33
2018-10-09T09:44:01.666Z,41.77
2018-10-09T09:46:30.192Z,44.60
2018-10-09T09:48:58.619Z,41.00
2018-10-09T09:51:27.491Z,44.57
2018-10-09T09:53:56.184Z,45.10
2018-10-09T09:56:24.932Z,43.20
2018-10-09T09:58:53.771Z,41.77
2018-10-09T10:01:26.408Z,50.23
2018-10-09T10:03:55.751Z,43.30
2018-10-09T10:06:24.286Z,48.17
2018-10-09T10:08:53.032Z,42.87
2018-10-09T10:11:21.546Z,41.47
2018-10-09T10:13:50.298Z,42.57
2018-10-09T10:16:18.723Z,43.03
2018-10-09T10:18:47.239Z,41.30
2018-10-09T10:21:15.714Z,43.37
2018-10-09T10:23:44.295Z,43.30
2018-10-09T10:26:12.706Z,38.37
2018-10-09T10:28:41.311Z,41.37
2018-10-09T10:31:09.757Z,40.10
2018-10-09T10:33:38.222Z,46.63
2018-10-09T10:36:06.869Z,39.03
2018-10-09T10:38:35.386Z,39.20
2018-10-09T10:41:03.844Z,37.87
2018-10-09T10:43:32.284Z,37.17
2018-10-09T10:46:01.835Z,35.90
2018-10-09T10:48:30.343Z,35.00
2018-10-09T10:50:58.883Z,35.63
2018-10-09T10:53:27.365Z,33.93
2018-10-09T10:55:55.814Z,35.93
2018-10-09T10:58:24.287Z,38.63
2018-10-09T11:00:52.770Z,35.53
2018-10-09T11:03:21.370Z,40.20
2018-10-09T11:05:49.799Z,44.53
2018-10-09T11:08:18.582Z,36.57
2018-10-09T11:10:47.646Z,39.07
2018-10-09T11:13:16.942Z,39.47
2018-10-09T11:15:45.407Z,40.03
2018-10-09T11:18:13.891Z,37.83
2018-10-09T11:20:42.323Z,40.37
2018-10-09T11:23:10.951Z,38.30
2018-10-09T11:25:39.432Z,40.97
2018-10-09T11:28:07.901Z,38.63
2018-10-09T11:30:36.318Z,41.67
2018-10-09T11:33:04.863Z,42.90
2018-10-09T11:35:33.378Z,38.90
2018-10-09T11:38:01.869Z,36.90
2018-10-09T11:40:30.340Z,37.57
2018-10-09T11:42:58.806Z,37.63
2018-10-09T11:45:27.355Z,39.23
2018-10-09T11:47:55.869Z,41.30
2018-10-09T11:50:24.339Z,40.50
2018-10-09T11:52:53.357Z,49.43
2018-10-09T11:55:21.923Z,45.30
2018-10-09T11:57:50.786Z,44.97
2018-10-09T12:00:19.691Z,48.80
2018-10-09T12:02:49.637Z,39.23
2018-10-09T12:05:18.366Z,36.70
2018-10-09T12:07:47.039Z,36.13
2018-10-09T12:10:15.606Z,34.57
2018-10-09T12:12:44.033Z,31.43
2018-10-09T12:15:19.045Z,31.40
2018-10-09T12:17:47.855Z,34.37
2018-10-09T12:20:16.457Z,31.77
2018-10-09T12:22:44.950Z,30.20
2018-10-09T12:25:13.578Z,26.20
2018-10-09T12:27:42.071Z,27.30
2018-10-09T12:30:10.568Z,30.77
2018-10-09T12:32:39.014Z,29.43
2018-10-09T12:35:07.626Z,30.90
2018-10-09T12:37:36.032Z,24.67
2018-10-09T12:40:04.614Z,28.87
2018-10-09T12:42:33.087Z,24.00
2018-10-09T12:45:01.636Z,25.10
2018-10-09T12:47:30.131Z,25.70
2018-10-09T12:49:59.399Z,24.77
2018-10-09T12:52:27.838Z,25.37
2018-10-09T12:54:56.682Z,24.53
2018-10-09T12:57:25.383Z,25.90
2018-10-09T12:59:56.190Z,29.60
2018-10-09T13:02:31.261Z,25.60
2018-10-09T13:05:03.357Z,26.00
2018-10-09T13:07:32.140Z,24.47
2018-10-09T13:10:01.176Z,25.40
2018-10-09T13:12:29.667Z,105.90
2018-10-09T13:14:58.671Z,103.53
2018-10-09T13:17:27.192Z,398.17
2018-10-09T13:19:55.855Z,335.70
2018-10-09T13:22:25.140Z,275.70
2018-10-09T13:24:53.733Z,53.90
2018-10-09T13:27:22.433Z,212.00
2018-10-09T13:29:50.859Z,96.40
2018-10-09T13:32:19.520Z,74.07
2018-10-09T13:41:29.134Z,49.37
2018-10-09T13:43:57.635Z,79.10
2018-10-09T13:46:26.609Z,46.43
2018-10-09T13:48:55.375Z,79.07
2018-10-09T13:51:23.818Z,35.80
2018-10-09T13:53:52.299Z,51.33
2018-10-09T13:56:20.724Z,45.50
2018-10-09T13:58:49.263Z,61.53
2018-10-09T14:01:17.752Z,52.50
2018-10-09T14:03:46.277Z,60.83
2018-10-09T14:06:14.869Z,57.93
2018-10-09T14:08:43.460Z,41.60
2018-10-09T14:11:11.856Z,38.47
2018-10-09T14:13:40.287Z,38.80
2018-10-09T14:16:08.788Z,38.93
2018-10-09T14:18:37.351Z,44.10
2018-10-09T14:21:05.986Z,33.37
2018-10-09T14:23:34.692Z,44.70
2018-10-09T14:26:03.225Z,49.07
2018-10-09T14:28:31.654Z,47.07
2018-10-09T14:31:00.118Z,30.50
2018-10-09T14:33:29.116Z,29.23
2018-10-09T14:35:57.540Z,28.87
2018-10-09T14:38:26.526Z,45.58
2018-10-09T14:40:55.524Z,30.82
2018-10-09T14:43:24.498Z,31.75
2018-10-09T14:45:53.508Z,43.95
2018-10-09T14:48:22.556Z,52.10
2018-10-09T14:50:51.575Z,40.28
2018-10-09T14:53:20.619Z,40.28
2018-10-09T14:55:49.655Z,37.05
2018-10-09T14:58:18.636Z,35.38
2018-10-09T15:00:47.671Z,38.10
2018-10-09T15:03:16.773Z,39.90
2018-10-09T15:05:46.071Z,53.17
2018-10-09T15:08:15.169Z,40.75
2018-10-09T15:10:44.257Z,46.83
2018-10-09T15:13:12.696Z,58.27
2018-10-09T15:15:41.289Z,37.43
2018-10-09T15:18:09.784Z,44.60
2018-10-09T15:20:38.235Z,33.63
2018-10-09T15:23:07.178Z,29.40
2018-10-09T15:25:35.705Z,32.03
2018-10-09T15:28:04.206Z,33.87
2018-10-09T15:30:39.064Z,48.42
2018-10-09T15:33:07.638Z,40.00
2018-10-09T15:35:36.189Z,46.47
2018-10-09T15:38:04.644Z,38.13
2018-10-09T15:40:33.199Z,40.33
2018-10-09T15:43:01.672Z,37.87
2018-10-09T15:45:30.276Z,37.43
2018-10-09T15:47:59.028Z,38.80
2018-10-09T15:50:27.495Z,41.80
2018-10-09T15:52:56.044Z,49.93
2018-10-09T15:55:24.557Z,56.43
2018-10-09T15:57:53.153Z,44.90
2018-10-09T16:00:22.540Z,50.07
2018-10-09T16:02:51.051Z,38.53
2018-10-09T16:05:19.528Z,44.33
2018-10-09T16:07:48.076Z,49.80
2018-10-09T16:10:16.585Z,50.77
2018-10-09T16:12:45.145Z,50.20
2018-10-09T16:15:13.621Z,44.13
2018-10-09T16:17:42.167Z,40.33
2018-10-09T16:20:10.627Z,43.90
2018-10-09T16:22:39.616Z,47.83
2018-10-09T16:25:08.242Z,44.37
2018-10-09T16:27:36.646Z,43.50
2018-10-09T16:30:05.271Z,49.10
2018-10-09T16:32:34.161Z,47.40
2018-10-09T16:35:02.711Z,41.47
2018-10-09T16:37:31.219Z,73.83
2018-10-09T16:39:59.635Z,47.33
2018-10-09T16:42:28.357Z,47.03
2018-10-09T16:44:57.149Z,43.00
2018-10-09T16:47:25.741Z,38.63
2018-10-09T16:49:54.307Z,43.97
2018-10-09T16:52:23.563Z,49.95
2018-10-09T16:54:52.188Z,50.03
2018-10-09T16:57:20.677Z,60.60
2018-10-09T16:59:49.158Z,51.63
2018-10-09T17:02:17.642Z,48.53
2018-10-09T17:04:46.224Z,42.17
2018-10-09T17:07:14.683Z,48.20
2018-10-09T17:09:43.203Z,44.47
2018-10-09T17:12:11.636Z,47.53
2018-10-09T17:14:40.219Z,47.57
2018-10-09T17:17:08.659Z,50.03
2018-10-09T17:19:37.470Z,46.20
2018-10-09T17:22:06.253Z,55.07
2018-10-09T17:24:34.700Z,57.73
2018-10-09T17:27:03.316Z,64.03
2018-10-09T17:29:31.737Z,53.37
2018-10-09T17:32:00.411Z,48.60
2018-10-09T17:34:28.929Z,50.90
2018-10-09T17:36:57.379Z,48.83
2018-10-09T17:39:25.816Z,49.30
2018-10-09T17:41:54.251Z,45.60
2018-10-09T17:44:24.603Z,46.50
2018-10-09T17:46:53.528Z,48.77
2018-10-09T17:49:23.703Z,46.02
2018-10-09T17:51:52.319Z,50.10
2018-10-09T17:54:20.916Z,52.17
2018-10-09T17:56:49.447Z,52.13
2018-10-09T17:59:17.944Z,58.07
2018-10-09T18:01:46.375Z,56.70
2018-10-09T18:04:14.904Z,50.10
2018-10-09T18:06:43.377Z,66.60
2018-10-09T18:09:12.919Z,53.20
2018-10-09T18:11:42.527Z,48.87
2018-10-09T18:14:11.976Z,44.30
2018-10-09T18:16:40.651Z,44.87
2018-10-09T18:19:09.473Z,47.60
2018-10-09T18:21:38.017Z,47.00
2018-10-09T18:24:06.659Z,54.33
2018-10-09T18:26:35.518Z,48.83
2018-10-09T18:29:04.330Z,49.77
2018-10-09T18:31:32.888Z,50.33
2018-10-09T18:34:01.410Z,49.30
2018-10-09T18:36:30.032Z,54.67
2018-10-09T18:38:58.567Z,64.13
2018-10-09T18:41:27.675Z,59.93
2018-10-09T18:43:56.505Z,47.27
2018-10-09T18:46:32.004Z,57.90
2018-10-09T18:49:00.850Z,52.20
2018-10-09T18:51:29.607Z,46.33
2018-10-09T18:53:58.949Z,49.00
2018-10-09T18:56:27.843Z,46.63
2018-10-09T18:58:56.427Z,47.77
2018-10-09T19:01:25.225Z,50.20
2018-10-09T19:03:53.805Z,42.67
2018-10-09T19:06:25.021Z,44.05
2018-10-09T19:08:53.794Z,45.30
2018-10-09T19:11:25.688Z,47.53
2018-10-09T19:13:55.026Z,50.10
2018-10-09T19:16:24.272Z,48.87
2018-10-09T19:18:52.890Z,43.90
2018-10-09T19:21:21.755Z,61.33
2018-10-09T19:23:50.591Z,51.43
2018-10-09T19:26:19.623Z,46.93
2018-10-09T19:28:48.317Z,50.27
2018-10-09T19:31:17.394Z,54.23
2018-10-09T19:33:47.079Z,50.07
2018-10-09T19:36:15.745Z,53.10
2018-10-09T19:38:47.386Z,44.40
2018-10-09T19:41:15.974Z,46.47
2018-10-09T19:43:44.548Z,42.80
2018-10-09T19:46:13.110Z,42.23
2018-10-09T19:48:41.735Z,45.47
2018-10-09T19:51:11.072Z,46.47
2018-10-09T19:53:42.063Z,39.67
2018-10-09T19:56:10.835Z,46.93
2018-10-09T19:58:40.521Z,50.80
2018-10-09T20:01:09.411Z,50.53
2018-10-09T20:03:38.766Z,56.73
2018-10-09T20:06:08.241Z,73.20
2018-10-09T20:08:36.956Z,64.00
2018-10-09T20:11:06.084Z,60.77
2018-10-09T20:13:34.852Z,54.00
2018-10-09T20:16:03.781Z,53.70
2018-10-09T20:18:48.615Z,50.83
2018-10-09T20:21:17.077Z,48.10
2018-10-09T20:23:45.727Z,52.93
2018-10-09T20:26:14.594Z,46.40
2018-10-09T20:28:43.527Z,53.37
2018-10-09T20:31:12.196Z,47.97
2018-10-09T20:33:40.720Z,43.93
2018-10-09T20:36:09.556Z,49.43
2018-10-09T20:38:38.114Z,45.20
2018-10-09T20:41:06.994Z,53.53
2018-10-09T20:43:35.901Z,45.90
2018-10-09T20:46:04.487Z,49.13
2018-10-09T20:48:32.956Z,47.37
2018-10-09T20:51:01.475Z,57.17
2018-10-09T20:53:30.068Z,48.73
2018-10-09T20:55:58.555Z,54.23
2018-10-09T20:58:27.107Z,45.97
2018-10-09T21:00:55.630Z,45.30
2018-10-09T21:03:24.337Z,44.63
2018-10-09T21:05:54.921Z,42.13
2018-10-09T21:08:23.804Z,46.23
2018-10-09T21:10:53.519Z,44.03
2018-10-09T21:13:22.911Z,45.70
2018-10-09T21:15:51.431Z,45.57
2018-10-09T21:18:22.861Z,42.50
2018-10-09T21:20:51.507Z,39.87
2018-10-09T21:23:20.145Z,43.17
2018-10-09T21:25:48.666Z,41.43
2018-10-09T21:28:17.122Z,45.90
2018-10-09T21:30:45.738Z,44.17
2018-10-09T21:33:14.673Z,41.57
2018-10-09T21:35:43.095Z,44.20
2018-10-09T21:38:11.690Z,42.53
2018-10-09T21:40:40.252Z,43.47
2018-10-09T21:43:08.825Z,46.70
2018-10-09T21:45:37.667Z,44.18
2018-10-09T21:48:07.370Z,41.80
2018-10-09T21:50:35.883Z,42.53
2018-10-09T21:53:04.603Z,40.20
2018-10-09T21:55:33.163Z,41.63
2018-10-09T21:58:01.644Z,45.03
2018-10-09T22:00:30.112Z,45.40
2018-10-09T22:02:58.642Z,43.33
2018-10-09T22:05:27.260Z,43.33
2018-10-09T22:07:55.716Z,42.00
2018-10-09T22:10:24.167Z,44.27
2018-10-09T22:12:52.627Z,42.97
2018-10-09T22:15:21.107Z,43.63
2018-10-09T22:17:49.517Z,39.30
2018-10-09T22:20:17.980Z,39.77
2018-10-09T22:22:46.694Z,41.97
2018-10-09T22:25:15.163Z,42.03
2018-10-09T22:27:43.650Z,38.43
2018-10-09T22:30:12.053Z,38.80
2018-10-09T22:32:40.818Z,43.20
2018-10-09T22:35:09.248Z,38.57
2018-10-09T22:37:37.693Z,43.10
2018-10-09T22:40:06.158Z,37.87
2018-10-09T22:42:35.104Z,38.63
2018-10-09T22:45:03.683Z,41.67
2018-10-09T22:47:32.264Z,45.03
2018-10-09T22:50:00.790Z,44.33
2018-10-09T22:52:29.393Z,41.43
2018-10-09T22:54:58.117Z,37.23
2018-10-09T22:57:26.771Z,40.43
2018-10-09T22:59:55.414Z,43.60
2018-10-09T23:02:24.096Z,40.90
2018-10-09T23:04:52.745Z,42.47
2018-10-09T23:07:21.219Z,41.70
2018-10-09T23:09:49.761Z,38.43
2018-10-09T23:12:18.168Z,37.07
2018-10-09T23:14:46.787Z,34.77
2018-10-09T23:17:15.294Z,37.17
2018-10-09T23:19:43.791Z,34.03
2018-10-09T23:22:12.286Z,35.57
2018-10-09T23:24:40.770Z,33.83
2018-10-09T23:27:09.306Z,36.23
2018-10-09T23:29:38.373Z,36.68
2018-10-09T23:32:06.827Z,38.10
2018-10-09T23:34:35.280Z,41.33
2018-10-09T23:37:04.162Z,37.90
2018-10-09T23:39:32.800Z,39.00
2018-10-09T23:42:01.194Z,39.33
2018-10-09T23:44:29.834Z,40.80
2018-10-09T23:46:58.352Z,38.17
2018-10-09T23:49:26.883Z,39.47
2018-10-09T23:51:55.477Z,42.87
2018-10-09T23:54:24.005Z,40.50
2018-10-09T23:56:52.857Z,38.03
2018-10-09T23:59:21.320Z,39.03
